Time;durP1;ratioP1;P1;durP2;ratioP2;P2;SDS_P1;SDS_P2;PMS_P1;PMS_P2;Temp;Humidity;BMP_temperature;BMP_pressure;BME280_temperature;BME280_humidity;BME280_pressure;Samples;Min_cycle;Max_cycle;Signal;HPM_P1;HPM_P2
2021/07/25 00:00:50;;;;;;;8.30;6.67;;;21.20;99.90;;;;;;4820430;29;20246;-77
2021/07/25 00:03:16;;;;;;;7.50;6.37;;;21.20;99.90;;;;;;4825706;29;20234;-77
2021/07/25 00:05:42;;;;;;;6.90;5.57;;;21.20;99.90;;;;;;4820393;29;20226;-77
2021/07/25 00:08:12;;;;;;;7.70;6.33;;;21.20;99.90;;;;;;4840768;29;20238;-78
2021/07/25 00:10:47;;;;;;;7.77;6.47;;;21.10;99.90;;;;;;4820946;29;20468;-77
2021/07/25 00:13:16;;;;;;;8.23;6.33;;;21.10;99.90;;;;;;4817885;29;20467;-78
2021/07/25 00:15:43;;;;;;;9.00;5.60;;;21.10;99.90;;;;;;4826466;29;20463;-77
2021/07/25 00:18:09;;;;;;;6.80;5.63;;;21.10;99.90;;;;;;4844366;29;20462;-77
2021/07/25 00:20:35;;;;;;;7.10;6.10;;;21.10;99.90;;;;;;4842027;29;21010;-77
2021/07/25 00:23:01;;;;;;;9.03;6.20;;;21.00;99.90;;;;;;4842107;29;20466;-77
2021/07/25 00:25:27;;;;;;;6.63;5.90;;;21.00;99.90;;;;;;4851172;29;20229;-77
2021/07/25 00:27:55;;;;;;;9.37;7.10;;;21.00;99.90;;;;;;4856677;29;20502;-77
2021/07/25 00:30:22;;;;;;;10.30;6.70;;;21.00;99.90;;;;;;4849388;29;20716;-77
2021/07/25 00:32:49;;;;;;;8.27;6.03;;;20.90;99.90;;;;;;4840688;29;20525;-77
2021/07/25 00:35:17;;;;;;;5.73;5.13;;;20.90;99.90;;;;;;4825535;29;20459;-79
2021/07/25 00:37:44;;;;;;;10.10;6.50;;;20.90;99.90;;;;;;4836681;29;20455;-80
2021/07/25 00:40:31;;;;;;;6.30;5.40;;;20.90;99.90;;;;;;4853218;29;20570;-79
2021/07/25 00:42:57;;;;;;;9.43;8.07;;;20.80;99.90;;;;;;4842380;29;20470;-77
2021/07/25 00:45:23;;;;;;;8.07;6.17;;;20.80;99.90;;;;;;4837318;29;20460;-77
2021/07/25 00:47:48;;;;;;;7.70;5.80;;;20.80;99.90;;;;;;4837621;29;20310;-77
2021/07/25 00:50:15;;;;;;;8.33;6.10;;;20.80;99.90;;;;;;4825256;29;20237;-77
2021/07/25 00:52:41;;;;;;;8.03;6.30;;;20.80;99.90;;;;;;4862834;29;20233;-77
2021/07/25 00:55:08;;;;;;;8.53;7.00;;;20.80;99.90;;;;;;4854727;29;20466;-77
2021/07/25 00:57:33;;;;;;;7.47;6.50;;;20.80;99.90;;;;;;4848079;29;20228;-77
2021/07/25 00:59:59;;;;;;;10.03;7.13;;;20.80;99.90;;;;;;4842249;29;20466;-77
2021/07/25 01:02:32;;;;;;;8.53;6.50;;;20.70;99.90;;;;;;4872981;29;20218;-77
2021/07/25 01:05:13;;;;;;;10.03;6.30;;;20.70;99.90;;;;;;4858583;29;20230;-77
2021/07/25 01:08:02;;;;;;;11.33;6.63;;;20.70;99.90;;;;;;4844379;29;20471;-77
2021/07/25 01:10:31;;;;;;;11.73;7.63;;;20.70;99.90;;;;;;4850740;29;20468;-77
2021/07/25 01:13:03;;;;;;;8.60;6.97;;;20.70;99.90;;;;;;4857815;29;20516;-77
2021/07/25 01:15:31;;;;;;;9.07;6.47;;;20.70;99.90;;;;;;4843171;29;20535;-77
2021/07/25 01:17:59;;;;;;;8.33;6.10;;;20.70;99.90;;;;;;4851939;29;20927;-77
2021/07/25 01:20:26;;;;;;;9.30;7.17;;;20.60;99.90;;;;;;4818859;29;20499;-77
2021/07/25 01:22:54;;;;;;;8.87;6.33;;;20.60;99.90;;;;;;4848569;29;20467;-80
2021/07/25 01:25:23;;;;;;;9.67;7.97;;;20.60;99.90;;;;;;4844883;29;20471;-79
2021/07/25 01:28:12;;;;;;;8.13;7.20;;;20.60;99.90;;;;;;4854501;29;20478;-78
2021/07/25 01:30:40;;;;;;;6.37;5.67;;;20.60;99.90;;;;;;4845585;29;20463;-78
2021/07/25 01:33:20;;;;;;;7.90;6.83;;;20.60;99.90;;;;;;4854182;29;20557;-77
2021/07/25 01:35:47;;;;;;;8.50;6.30;;;20.60;99.90;;;;;;4862874;29;20478;-78
2021/07/25 01:38:13;;;;;;;6.90;6.10;;;20.50;99.90;;;;;;4850217;29;20470;-77
2021/07/25 01:40:39;;;;;;;7.80;6.20;;;20.50;99.90;;;;;;4828555;29;20542;-78
2021/07/25 01:43:07;;;;;;;8.90;6.30;;;20.50;99.90;;;;;;4860880;29;20611;-78
2021/07/25 01:45:34;;;;;;;8.47;7.47;;;20.50;99.90;;;;;;4858738;29;20229;-78
2021/07/25 01:48:00;;;;;;;7.60;6.90;;;20.50;99.90;;;;;;4828069;29;20674;-78
2021/07/25 01:50:26;;;;;;;7.17;6.23;;;20.50;99.90;;;;;;4828324;29;20960;-78
2021/07/25 01:52:52;;;;;;;6.83;6.13;;;20.40;99.90;;;;;;4829797;29;20703;-77
2021/07/25 01:55:17;;;;;;;9.60;6.07;;;20.40;99.90;;;;;;4851836;29;20242;-78
2021/07/25 01:57:44;;;;;;;8.47;7.13;;;20.40;99.90;;;;;;4843695;29;20227;-77
2021/07/25 02:00:11;;;;;;;7.37;6.57;;;20.40;99.90;;;;;;4828127;29;20608;-77
2021/07/25 02:02:37;;;;;;;7.30;6.27;;;20.40;99.90;;;;;;4850486;29;20994;-78
2021/07/25 02:05:05;;;;;;;7.80;5.87;;;20.40;99.90;;;;;;4853682;29;20471;-78
2021/07/25 02:07:31;;;;;;;8.27;6.33;;;20.30;99.90;;;;;;4862171;29;20289;-77
2021/07/25 02:09:56;;;;;;;10.33;7.13;;;20.20;99.90;;;;;;4859155;29;20470;-77
2021/07/25 02:12:22;;;;;;;6.87;5.67;;;20.20;99.90;;;;;;4839190;29;20229;-78
2021/07/25 02:14:48;;;;;;;6.73;6.03;;;20.30;99.90;;;;;;4845650;29;20233;-78
2021/07/25 02:17:14;;;;;;;6.90;5.97;;;20.20;99.90;;;;;;4839947;29;20464;-78
2021/07/25 02:19:40;;;;;;;7.50;6.10;;;20.20;99.90;;;;;;4840412;29;20270;-77
2021/07/25 02:22:05;;;;;;;8.40;6.47;;;20.20;99.90;;;;;;4850087;29;20230;-79
2021/07/25 02:24:31;;;;;;;8.60;7.77;;;20.20;99.90;;;;;;4854853;29;20250;-78
2021/07/25 02:26:57;;;;;;;8.23;6.77;;;20.10;99.90;;;;;;4854743;29;20595;-78
2021/07/25 02:29:23;;;;;;;8.37;6.33;;;20.20;99.90;;;;;;4840268;29;20222;-78
2021/07/25 02:31:49;;;;;;;8.63;7.20;;;20.20;99.90;;;;;;4861975;29;20462;-77
2021/07/25 02:34:15;;;;;;;6.10;5.50;;;20.20;99.90;;;;;;4856783;29;20248;-78
2021/07/25 02:36:41;;;;;;;8.27;6.90;;;20.20;99.90;;;;;;4825223;29;20850;-78
2021/07/25 02:39:07;;;;;;;9.73;7.53;;;20.20;99.90;;;;;;4809146;29;20292;-77
2021/07/25 02:41:33;;;;;;;8.80;7.00;;;20.20;99.90;;;;;;4819948;29;20230;-78
2021/07/25 02:43:59;;;;;;;9.30;6.93;;;20.20;99.90;;;;;;4845017;29;20321;-77
2021/07/25 02:46:24;;;;;;;7.30;6.50;;;20.20;99.90;;;;;;4822173;29;20557;-78
2021/07/25 02:48:50;;;;;;;9.67;6.57;;;20.20;99.90;;;;;;4842866;29;20628;-77
2021/07/25 02:51:16;;;;;;;9.03;7.73;;;20.20;99.90;;;;;;4841991;29;20605;-78
2021/07/25 02:53:41;;;;;;;12.53;8.50;;;20.10;99.90;;;;;;4824498;29;20231;-78
2021/07/25 02:56:07;;;;;;;10.40;7.87;;;20.00;99.90;;;;;;4843102;29;20321;-78
2021/07/25 02:58:33;;;;;;;11.00;8.50;;;20.00;99.90;;;;;;4846067;29;20714;-77
2021/07/25 03:00:59;;;;;;;7.90;6.73;;;20.00;99.90;;;;;;4812327;29;20226;-77
2021/07/25 03:03:24;;;;;;;8.93;7.70;;;19.90;99.90;;;;;;4835325;29;20258;-78
2021/07/25 03:05:50;;;;;;;10.20;7.73;;;19.90;99.90;;;;;;4837434;29;20225;-78
2021/07/25 03:08:16;;;;;;;9.37;7.30;;;19.90;99.90;;;;;;4839769;29;20225;-77
2021/07/25 03:10:42;;;;;;;9.70;6.97;;;19.70;99.90;;;;;;4837882;29;20710;-78
2021/07/25 03:13:08;;;;;;;9.67;7.83;;;19.70;99.90;;;;;;4828781;29;20228;-77
2021/07/25 03:15:33;;;;;;;7.83;7.03;;;19.60;99.90;;;;;;4835449;29;20468;-78
2021/07/25 03:17:59;;;;;;;9.77;7.60;;;19.60;99.90;;;;;;4827847;29;20907;-78
2021/07/25 03:20:28;;;;;;;9.17;6.77;;;19.60;99.90;;;;;;4851558;29;20214;-78
2021/07/25 03:22:54;;;;;;;8.30;6.60;;;19.60;99.90;;;;;;4829852;29;20230;-78
2021/07/25 03:25:20;;;;;;;8.83;6.43;;;19.60;99.90;;;;;;4813018;29;20455;-77
2021/07/25 03:27:45;;;;;;;8.20;6.93;;;19.60;99.90;;;;;;4857702;29;20369;-77
2021/07/25 03:30:11;;;;;;;7.97;6.30;;;19.60;99.90;;;;;;4822371;29;20219;-78
2021/07/25 03:32:37;;;;;;;10.97;7.10;;;19.60;99.90;;;;;;4829702;29;20225;-77
2021/07/25 03:35:03;;;;;;;6.90;6.20;;;19.70;99.90;;;;;;4859852;29;20551;-78
2021/07/25 03:37:29;;;;;;;9.40;7.10;;;19.70;99.90;;;;;;4856775;29;20250;-78
2021/07/25 03:39:55;;;;;;;9.27;7.80;;;19.70;99.90;;;;;;4846167;29;20498;-77
2021/07/25 03:42:21;;;;;;;8.40;7.20;;;19.70;99.90;;;;;;4840819;29;20715;-78
2021/07/25 03:44:47;;;;;;;19.47;9.60;;;19.70;99.90;;;;;;4826712;29;20471;-77
2021/07/25 03:47:14;;;;;;;12.00;7.27;;;19.70;99.90;;;;;;4833041;29;20759;-77
2021/07/25 03:49:40;;;;;;;7.20;6.40;;;19.70;99.90;;;;;;4857103;29;20743;-77
2021/07/25 03:52:07;;;;;;;7.17;5.33;;;19.70;99.90;;;;;;4837777;29;20968;-77
2021/07/25 03:54:34;;;;;;;5.90;5.30;;;19.70;99.90;;;;;;4840755;29;20490;-77
2021/07/25 03:57:01;;;;;;;6.60;5.60;;;19.70;99.90;;;;;;4852054;29;20549;-78
2021/07/25 03:59:26;;;;;;;8.40;5.73;;;19.80;99.90;;;;;;4831162;29;20486;-77
2021/07/25 04:01:52;;;;;;;6.80;5.27;;;19.80;99.90;;;;;;4821300;29;20888;-78
2021/07/25 04:04:20;;;;;;;8.60;5.97;;;19.80;99.90;;;;;;4830339;29;20231;-77
2021/07/25 04:06:46;;;;;;;6.20;5.20;;;19.80;99.90;;;;;;4848004;29;20238;-77
2021/07/25 04:09:21;;;;;;;9.30;6.17;;;19.80;99.90;;;;;;4852799;29;21089;-77
2021/07/25 04:11:52;;;;;;;8.73;6.20;;;19.90;99.90;;;;;;4859780;29;20225;-77
2021/07/25 04:14:18;;;;;;;9.90;7.20;;;19.80;99.90;;;;;;4854717;29;20511;-77
2021/07/25 04:16:44;;;;;;;9.30;6.57;;;19.70;99.90;;;;;;4849286;29;20964;-77
2021/07/25 04:19:09;;;;;;;8.60;6.57;;;19.70;99.90;;;;;;4807629;29;20548;-77
2021/07/25 04:21:35;;;;;;;8.53;6.30;;;19.80;99.90;;;;;;4815866;29;20238;-79
2021/07/25 04:24:01;;;;;;;7.37;5.73;;;19.80;99.90;;;;;;4804123;29;20263;-78
2021/07/25 04:26:27;;;;;;;8.97;5.77;;;19.80;99.90;;;;;;4824238;29;20730;-77
2021/07/25 04:28:56;;;;;;;12.00;6.33;;;19.80;99.90;;;;;;4845204;29;20229;-77
2021/07/25 04:31:22;;;;;;;8.70;6.17;;;19.90;99.90;;;;;;4828876;29;20566;-77
2021/07/25 04:33:52;;;;;;;6.80;5.73;;;19.90;99.90;;;;;;4844871;29;20936;-77
2021/07/25 04:36:25;;;;;;;7.30;6.10;;;19.90;99.90;;;;;;4855452;29;20970;-78
2021/07/25 04:38:51;;;;;;;5.53;4.83;;;19.90;99.90;;;;;;4855571;29;20511;-77
2021/07/25 04:41:21;;;;;;;7.17;5.57;;;19.90;99.90;;;;;;4839698;29;20463;-77
2021/07/25 04:43:47;;;;;;;8.17;6.80;;;19.90;99.90;;;;;;4852905;29;20475;-77
2021/07/25 04:46:26;;;;;;;7.30;5.73;;;19.90;99.90;;;;;;4853555;29;20862;-77
2021/07/25 04:49:05;;;;;;;7.90;5.70;;;19.90;99.90;;;;;;4853945;29;20478;-80
2021/07/25 04:51:31;;;;;;;11.20;6.50;;;19.90;99.90;;;;;;4848102;29;20458;-79
2021/07/25 04:54:06;;;;;;;7.50;5.70;;;19.90;99.90;;;;;;4863205;29;20455;-77
2021/07/25 04:56:40;;;;;;;6.97;5.93;;;19.90;99.90;;;;;;4856876;29;20536;-77
2021/07/25 04:59:14;;;;;;;6.23;5.63;;;19.90;99.90;;;;;;4835837;29;20465;-77
2021/07/25 05:01:45;;;;;;;9.60;6.63;;;19.90;99.90;;;;;;4851584;29;20506;-77
2021/07/25 05:04:11;;;;;;;9.80;7.30;;;19.90;99.90;;;;;;4854854;29;20518;-77
2021/07/25 05:06:38;;;;;;;11.73;6.83;;;19.90;99.90;;;;;;4847549;29;20470;-77
2021/07/25 05:09:04;;;;;;;7.97;6.10;;;19.90;99.90;;;;;;4852563;29;20983;-77
2021/07/25 05:11:44;;;;;;;7.17;5.80;;;19.90;99.90;;;;;;4859705;29;20474;-78
2021/07/25 05:14:19;;;;;;;6.67;5.40;;;19.90;99.90;;;;;;4846600;29;20510;-77
2021/07/25 05:16:54;;;;;;;7.00;6.30;;;19.90;99.90;;;;;;4857298;29;20462;-78
2021/07/25 05:19:28;;;;;;;6.43;5.60;;;19.90;99.90;;;;;;4859661;29;20442;-78
2021/07/25 05:22:08;;;;;;;10.87;6.53;;;19.90;99.90;;;;;;4839119;29;20470;-78
2021/07/25 05:24:43;;;;;;;7.80;6.10;;;19.90;99.90;;;;;;4825982;29;20561;-77
2021/07/25 05:27:20;;;;;;;6.53;5.67;;;19.90;99.90;;;;;;4824826;29;21052;-77
2021/07/25 05:29:47;;;;;;;9.30;6.27;;;19.90;99.90;;;;;;4836349;29;20490;-77
2021/07/25 05:32:14;;;;;;;10.50;6.57;;;20.00;99.90;;;;;;4827522;29;20474;-77
2021/07/25 05:34:40;;;;;;;13.40;6.83;;;20.00;99.90;;;;;;4827782;29;20478;-77
2021/07/25 05:37:05;;;;;;;6.67;5.70;;;20.00;99.90;;;;;;4831266;29;20555;-77
2021/07/25 05:39:31;;;;;;;6.70;5.57;;;20.00;99.90;;;;;;4846385;29;20234;-77
2021/07/25 05:41:57;;;;;;;8.73;6.40;;;20.00;99.90;;;;;;4847274;29;20225;-78
2021/07/25 05:44:23;;;;;;;8.17;7.00;;;20.00;99.90;;;;;;4842317;29;20230;-77
2021/07/25 05:46:49;;;;;;;9.27;6.27;;;20.10;99.90;;;;;;4852475;29;20313;-77
2021/07/25 05:49:15;;;;;;;8.80;6.07;;;20.00;99.90;;;;;;4859880;29;20562;-77
2021/07/25 05:51:41;;;;;;;7.90;6.17;;;20.10;99.90;;;;;;4835406;29;20259;-77
2021/07/25 05:54:07;;;;;;;7.73;5.77;;;20.10;99.90;;;;;;4860672;29;20237;-77
2021/07/25 05:56:33;;;;;;;8.77;6.20;;;20.10;99.90;;;;;;4846475;29;20836;-77
2021/07/25 05:58:58;;;;;;;7.60;6.77;;;20.10;99.90;;;;;;4856756;29;20309;-77
2021/07/25 06:01:24;;;;;;;6.20;5.27;;;20.10;99.90;;;;;;4830281;29;20218;-77
2021/07/25 06:03:50;;;;;;;12.23;5.03;;;20.10;99.90;;;;;;4827292;29;20241;-77
2021/07/25 06:06:16;;;;;;;7.10;5.80;;;20.10;99.90;;;;;;4827405;29;20254;-77
2021/07/25 06:08:42;;;;;;;6.70;5.87;;;20.20;99.90;;;;;;4835088;29;20486;-77
2021/07/25 06:11:08;;;;;;;9.30;6.07;;;20.20;99.90;;;;;;4851242;29;20250;-77
2021/07/25 06:13:34;;;;;;;8.00;6.27;;;20.20;99.90;;;;;;4813299;29;20495;-79
2021/07/25 06:16:00;;;;;;;6.47;5.83;;;20.20;99.90;;;;;;4830253;29;20249;-81
2021/07/25 06:18:27;;;;;;;8.00;6.30;;;20.30;99.90;;;;;;4828332;29;20223;-79
2021/07/25 06:20:53;;;;;;;8.27;6.67;;;20.30;99.90;;;;;;4851201;29;20215;-80
2021/07/25 06:23:19;;;;;;;7.07;5.57;;;20.30;99.90;;;;;;4855249;29;21134;-79
2021/07/25 06:25:45;;;;;;;10.67;7.00;;;20.30;99.90;;;;;;4846663;29;20269;-79
2021/07/25 06:28:10;;;;;;;8.10;6.00;;;20.30;99.90;;;;;;4842677;29;20238;-79
2021/07/25 06:30:36;;;;;;;9.80;6.43;;;20.40;99.90;;;;;;4830801;29;20231;-79
2021/07/25 06:33:04;;;;;;;9.20;6.03;;;20.40;99.90;;;;;;4842007;29;20309;-79
2021/07/25 06:35:40;;;;;;;8.67;6.80;;;20.40;99.90;;;;;;4817323;29;20227;-80
2021/07/25 06:38:12;;;;;;;8.37;5.87;;;20.40;99.90;;;;;;4843249;29;20617;-80
2021/07/25 06:40:40;;;;;;;7.97;6.07;;;20.40;99.90;;;;;;4831500;29;20522;-79
2021/07/25 06:43:06;;;;;;;8.43;6.10;;;20.40;99.90;;;;;;4826709;29;20559;-76
2021/07/25 06:45:36;;;;;;;9.13;6.93;;;20.50;99.90;;;;;;4810542;29;21011;-77
2021/07/25 06:48:02;;;;;;;6.73;6.10;;;20.50;99.90;;;;;;4824747;29;20250;-77
2021/07/25 06:50:30;;;;;;;8.77;6.23;;;20.50;99.90;;;;;;4844759;29;20471;-77
2021/07/25 06:52:57;;;;;;;8.60;6.60;;;20.60;99.90;;;;;;4823377;29;20467;-77
2021/07/25 06:55:28;;;;;;;10.73;7.80;;;20.60;99.90;;;;;;4830586;29;20519;-77
2021/07/25 06:57:54;;;;;;;8.77;6.87;;;20.70;99.90;;;;;;4841707;29;20467;-77
2021/07/25 07:00:20;;;;;;;7.63;6.83;;;20.70;99.90;;;;;;4829289;29;20467;-77
2021/07/25 07:02:50;;;;;;;7.57;6.77;;;20.80;99.90;;;;;;4823387;29;20460;-79
2021/07/25 07:05:21;;;;;;;8.83;7.07;;;20.80;99.90;;;;;;4836517;29;20249;-77
2021/07/25 07:07:49;;;;;;;8.33;6.43;;;20.90;99.90;;;;;;4844194;29;20474;-77
2021/07/25 07:10:20;;;;;;;9.43;6.40;;;20.90;99.90;;;;;;4845291;29;20816;-77
2021/07/25 07:12:51;;;;;;;10.47;7.23;;;21.00;99.90;;;;;;4836587;29;20456;-77
2021/07/25 07:15:19;;;;;;;8.73;7.33;;;21.10;99.90;;;;;;4847131;29;20474;-77
2021/07/25 07:17:47;;;;;;;9.07;7.57;;;21.10;99.90;;;;;;4848863;29;20492;-77
2021/07/25 07:20:13;;;;;;;8.97;7.60;;;21.20;99.90;;;;;;4842812;29;20460;-77
2021/07/25 07:22:39;;;;;;;9.10;6.80;;;21.20;99.90;;;;;;4847621;29;20451;-77
2021/07/25 07:25:06;;;;;;;8.30;6.80;;;21.20;99.90;;;;;;4837314;29;20313;-77
2021/07/25 07:27:33;;;;;;;9.87;7.27;;;21.30;99.90;;;;;;4861209;29;20854;-80
2021/07/25 07:29:59;;;;;;;7.50;6.60;;;21.30;99.90;;;;;;4842217;29;20467;-80
2021/07/25 07:32:25;;;;;;;10.10;8.03;;;21.30;99.90;;;;;;4811989;29;20495;-78
2021/07/25 07:34:51;;;;;;;11.00;7.67;;;21.30;99.90;;;;;;4860964;29;20487;-79
2021/07/25 07:37:17;;;;;;;10.50;8.07;;;21.40;99.90;;;;;;4832428;29;20724;-76
2021/07/25 07:39:43;;;;;;;10.03;6.87;;;21.50;99.90;;;;;;4858026;29;20225;-78
2021/07/25 07:42:11;;;;;;;9.13;7.03;;;21.50;99.90;;;;;;4847860;29;20226;-78
2021/07/25 07:44:38;;;;;;;8.20;6.47;;;21.50;99.90;;;;;;4827166;29;20486;-78
2021/07/25 07:47:04;;;;;;;12.03;8.13;;;21.50;99.90;;;;;;4814467;29;20855;-78
2021/07/25 07:49:30;;;;;;;8.07;6.50;;;21.60;99.90;;;;;;4825560;29;20468;-78
2021/07/25 07:51:56;;;;;;;7.93;6.60;;;21.70;99.90;;;;;;4836613;29;20473;-78
2021/07/25 07:54:22;;;;;;;10.03;6.77;;;21.70;99.90;;;;;;4830422;29;20261;-78
2021/07/25 07:56:48;;;;;;;7.37;5.93;;;21.80;99.90;;;;;;4836945;29;20505;-78
2021/07/25 07:59:14;;;;;;;8.87;7.00;;;21.80;99.90;;;;;;4859222;29;20221;-78
2021/07/25 08:01:44;;;;;;;9.63;6.50;;;21.90;99.90;;;;;;4839321;29;20462;-78
2021/07/25 08:04:10;;;;;;;9.30;6.50;;;21.90;99.90;;;;;;4829038;29;20484;-78
2021/07/25 08:06:35;;;;;;;8.03;5.80;;;22.00;99.90;;;;;;4827495;29;20544;-78
2021/07/25 08:09:01;;;;;;;9.60;6.80;;;22.10;99.90;;;;;;4811464;29;20226;-78
2021/07/25 08:11:30;;;;;;;8.00;6.30;;;22.20;99.90;;;;;;4836082;29;20226;-78
2021/07/25 08:13:56;;;;;;;8.67;6.00;;;22.20;99.90;;;;;;4855264;29;20720;-78
2021/07/25 08:16:22;;;;;;;6.80;6.10;;;22.20;99.90;;;;;;4849333;29;20968;-78
2021/07/25 08:18:48;;;;;;;7.83;6.50;;;22.30;99.90;;;;;;4851403;29;20465;-78
2021/07/25 08:21:14;;;;;;;7.63;6.30;;;22.30;99.90;;;;;;4834233;29;20222;-77
2021/07/25 08:23:40;;;;;;;8.80;5.80;;;22.30;99.90;;;;;;4850659;29;20230;-78
2021/07/25 08:26:05;;;;;;;8.93;6.37;;;22.30;99.90;;;;;;4857830;29;20217;-78
2021/07/25 08:28:31;;;;;;;8.93;7.47;;;22.40;99.90;;;;;;4838189;29;20247;-78
2021/07/25 08:30:57;;;;;;;7.50;6.10;;;22.40;99.90;;;;;;4839372;29;20233;-78
2021/07/25 08:33:23;;;;;;;5.90;5.33;;;22.40;99.90;;;;;;4844070;29;20650;-78
2021/07/25 08:35:49;;;;;;;7.97;5.70;;;22.40;99.90;;;;;;4829702;29;20467;-78
2021/07/25 08:38:14;;;;;;;7.57;6.83;;;22.50;99.90;;;;;;4839607;29;20217;-78
2021/07/25 08:40:52;;;;;;;6.70;5.77;;;22.50;99.90;;;;;;4833981;29;20233;-78
2021/07/25 08:43:19;;;;;;;6.30;5.67;;;22.60;99.90;;;;;;4832610;29;20233;-78
2021/07/25 08:45:45;;;;;;;8.93;7.37;;;22.70;99.90;;;;;;4826656;29;20872;-78
2021/07/25 08:48:49;;;;;;;9.23;5.47;;;22.80;99.90;;;;;;4808520;29;20490;-78
2021/07/25 08:51:21;;;;;;;7.30;5.77;;;22.80;99.90;;;;;;4828088;29;20476;-78
2021/07/25 08:54:00;;;;;;;7.67;6.10;;;22.80;99.90;;;;;;4829464;29;20982;-78
2021/07/25 08:56:36;;;;;;;6.23;5.70;;;22.90;99.90;;;;;;4827982;29;20475;-78
2021/07/25 08:59:06;;;;;;;7.37;5.30;;;22.90;99.90;;;;;;4826146;29;20484;-78
2021/07/25 09:01:34;;;;;;;10.80;5.93;;;23.00;99.90;;;;;;4827951;29;20485;-78
2021/07/25 09:04:01;;;;;;;8.37;6.13;;;23.10;99.90;;;;;;4822755;29;20470;-78
2021/07/25 09:06:52;;;;;;;8.30;5.97;;;23.10;99.90;;;;;;4826986;29;20851;-78
2021/07/25 09:09:19;;;;;;;7.03;6.10;;;23.20;99.90;;;;;;4840697;29;20549;-78
2021/07/25 09:11:49;;;;;;;7.90;5.90;;;23.30;99.90;;;;;;4820556;29;20479;-78
2021/07/25 09:14:17;;;;;;;6.70;5.50;;;23.40;99.90;;;;;;4825362;29;20479;-78
2021/07/25 09:16:43;;;;;;;7.10;6.40;;;23.50;99.90;;;;;;4853589;29;20466;-78
2021/07/25 09:19:15;;;;;;;7.83;7.03;;;23.60;99.90;;;;;;4846133;29;20722;-78
2021/07/25 09:21:50;;;;;;;9.60;8.60;;;23.60;99.90;;;;;;4852489;29;20587;-78
2021/07/25 09:24:28;;;;;;;8.10;7.07;;;23.70;99.90;;;;;;4852638;29;20457;-78
2021/07/25 09:27:03;;;;;;;6.80;6.10;;;23.80;99.90;;;;;;4857855;29;20481;-78
2021/07/25 09:29:35;;;;;;;9.53;8.63;;;23.90;99.90;;;;;;4827994;29;21039;-78
2021/07/25 09:32:17;;;;;;;8.33;6.37;;;24.00;99.90;;;;;;4843411;29;20451;-79
2021/07/25 09:34:48;;;;;;;7.63;6.60;;;24.10;99.90;;;;;;4813214;29;20454;-78
2021/07/25 09:37:21;;;;;;;7.33;6.63;;;24.20;99.90;;;;;;4849819;29;20454;-79
2021/07/25 09:39:51;;;;;;;9.00;8.20;;;24.20;99.90;;;;;;4830657;29;20451;-78
2021/07/25 09:42:28;;;;;;;7.63;6.83;;;24.30;99.90;;;;;;4846967;29;20467;-78
2021/07/25 09:44:57;;;;;;;7.37;6.63;;;24.30;99.90;;;;;;4856340;29;20459;-78
2021/07/25 09:47:50;;;;;;;7.30;6.60;;;24.40;99.90;;;;;;4837690;29;20562;-79
2021/07/25 09:50:27;;;;;;;9.67;5.97;;;24.50;99.90;;;;;;4856222;29;20470;-78
2021/07/25 09:52:59;;;;;;;6.03;5.43;;;24.60;99.90;;;;;;4821403;29;20630;-78
2021/07/25 09:55:30;;;;;;;6.90;5.60;;;24.60;99.90;;;;;;4817600;29;20458;-79
2021/07/25 09:57:55;;;;;;;6.03;5.43;;;24.60;99.90;;;;;;4842173;29;20491;-80
2021/07/25 10:00:21;;;;;;;6.57;5.87;;;24.70;99.90;;;;;;4837229;29;20913;-80
2021/07/25 10:02:47;;;;;;;6.50;5.90;;;24.80;99.90;;;;;;4864923;29;20229;-80
2021/07/25 10:05:13;;;;;;;6.63;5.50;;;24.90;99.90;;;;;;4831835;29;20230;-81
2021/07/25 10:07:40;;;;;;;5.27;4.80;;;25.00;99.90;;;;;;4846091;29;20234;-81
2021/07/25 10:10:10;;;;;;;5.20;4.63;;;25.20;99.90;;;;;;4827499;29;20226;-78
2021/07/25 10:12:41;;;;;;;6.93;5.80;;;25.30;99.90;;;;;;4839517;29;20448;-81
2021/07/25 10:15:11;;;;;;;5.43;4.70;;;25.30;99.90;;;;;;4820186;29;20496;-81
2021/07/25 10:17:39;;;;;;;5.60;4.37;;;25.50;99.90;;;;;;4853371;29;20833;-79
2021/07/25 10:20:08;;;;;;;7.60;5.10;;;25.50;99.90;;;;;;4859869;29;20851;-78
2021/07/25 10:22:46;;;;;;;5.03;4.53;;;25.60;99.90;;;;;;4844144;29;20469;-78
2021/07/25 10:25:15;;;;;;;5.70;4.97;;;25.60;99.90;;;;;;4840907;29;20957;-81
2021/07/25 10:27:44;;;;;;;4.37;3.97;;;25.80;99.90;;;;;;4840139;29;20474;-80
2021/07/25 10:30:11;;;;;;;5.57;4.13;;;26.00;99.90;;;;;;4848098;29;20455;-81
2021/07/25 10:32:39;;;;;;;5.67;3.87;;;26.10;99.90;;;;;;4848142;29;20542;-79
2021/07/25 10:35:07;;;;;;;4.57;3.93;;;26.10;99.90;;;;;;4860625;29;20483;-79
2021/07/25 10:37:36;;;;;;;4.67;3.63;;;26.10;99.90;;;;;;4830120;29;20470;-79
2021/07/25 10:40:03;;;;;;;6.93;4.53;;;26.30;99.90;;;;;;4835664;29;20500;-79
2021/07/25 10:42:32;;;;;;;4.20;3.80;;;26.30;99.90;;;;;;4844169;29;20469;-78
2021/07/25 10:44:58;;;;;;;3.90;3.50;;;26.40;99.90;;;;;;4848898;29;20482;-79
2021/07/25 10:47:32;;;;;;;3.60;3.30;;;26.50;99.90;;;;;;4840960;29;20475;-79
2021/07/25 10:50:03;;;;;;;5.07;3.73;;;26.60;99.90;;;;;;4828959;29;20582;-79
2021/07/25 10:53:00;;;;;;;4.20;3.10;;;26.70;99.90;;;;;;4840099;29;20523;-79
2021/07/25 10:55:35;;;;;;;4.13;3.13;;;26.80;99.90;;;;;;4842642;29;20474;-79
2021/07/25 10:58:07;;;;;;;3.50;3.20;;;26.90;99.90;;;;;;4825446;29;20497;-79
2021/07/25 11:00:40;;;;;;;4.13;3.07;;;27.00;99.90;;;;;;4825939;29;20457;-79
2021/07/25 11:03:07;;;;;;;3.40;3.10;;;27.00;99.90;;;;;;4828709;29;20508;-79
2021/07/25 11:05:33;;;;;;;5.77;3.60;;;27.10;99.90;;;;;;4840937;29;20464;-79
2021/07/25 11:08:00;;;;;;;4.10;3.20;;;27.10;99.90;;;;;;4828248;29;20479;-78
2021/07/25 11:10:33;;;;;;;4.33;3.00;;;27.20;99.90;;;;;;4827891;29;20470;-79
2021/07/25 11:13:02;;;;;;;3.47;3.00;;;27.20;99.90;;;;;;4815784;29;20470;-79
2021/07/25 11:15:34;;;;;;;4.40;3.40;;;27.30;99.90;;;;;;4838751;29;20839;-79
2021/07/25 11:18:05;;;;;;;3.80;3.40;;;27.40;99.90;;;;;;4850257;29;21103;-78
2021/07/25 11:21:12;;;;;;;3.00;2.80;;;27.60;99.90;;;;;;4845498;29;20549;-79
2021/07/25 11:23:38;;;;;;;3.20;2.90;;;27.80;99.90;;;;;;4839089;29;20557;-79
2021/07/25 11:26:34;;;;;;;3.00;2.63;;;27.80;99.90;;;;;;4844953;29;20469;-79
2021/07/25 11:29:01;;;;;;;4.07;3.30;;;27.80;99.90;;;;;;4836536;29;20229;-79
2021/07/25 11:31:42;;;;;;;2.93;2.73;;;27.80;99.90;;;;;;4842468;29;20470;-79
2021/07/25 11:34:12;;;;;;;3.33;2.50;;;27.80;99.90;;;;;;4832315;29;20481;-79
2021/07/25 11:36:39;;;;;;;5.90;3.20;;;28.00;99.90;;;;;;4862893;29;20312;-79
2021/07/25 11:39:06;;;;;;;2.50;2.30;;;28.00;99.90;;;;;;4833809;29;20254;-79
2021/07/25 11:41:37;;;;;;;3.00;2.70;;;28.10;99.90;;;;;;4842919;29;20873;-79
2021/07/25 11:44:06;;;;;;;4.43;3.10;;;28.30;99.90;;;;;;4841956;29;20237;-79
2021/07/25 11:46:32;;;;;;;2.55;2.35;;;28.40;99.90;;;;;;4863468;29;20250;-80
2021/07/25 11:49:01;;;;;;;3.27;2.97;;;28.40;99.90;;;;;;4855688;29;20222;-79
2021/07/25 11:51:27;;;;;;;2.83;2.53;;;28.40;99.90;;;;;;4844498;29;20230;-78
2021/07/25 11:53:54;;;;;;;3.00;2.80;;;28.50;99.90;;;;;;4831416;29;20605;-78
2021/07/25 11:56:19;;;;;;;2.90;2.70;;;28.50;99.90;;;;;;4847647;29;20234;-78
2021/07/25 11:59:03;;;;;;;2.53;2.33;;;28.50;99.90;;;;;;4827389;29;20228;-79
2021/07/25 12:01:30;;;;;;;3.15;2.90;;;28.50;99.90;;;;;;4843898;29;20702;-78
2021/07/25 12:03:56;;;;;;;3.00;2.80;;;28.40;99.90;;;;;;4847615;29;20222;-78
2021/07/25 12:06:21;;;;;;;2.58;2.38;;;28.50;99.90;;;;;;4850605;29;20293;-78
2021/07/25 12:09:05;;;;;;;5.43;2.60;;;28.70;99.90;;;;;;4858837;29;20753;-79
2021/07/25 12:11:32;;;;;;;3.30;2.45;;;28.80;99.90;;;;;;4826529;29;20217;-78
2021/07/25 12:13:57;;;;;;;4.78;2.75;;;28.90;99.90;;;;;;4861951;29;20232;-78
2021/07/25 12:16:23;;;;;;;4.32;2.75;;;29.00;99.90;;;;;;4864048;29;20214;-78
2021/07/25 12:18:49;;;;;;;2.40;2.30;;;29.20;99.50;;;;;;4827577;29;20230;-79
2021/07/25 12:21:30;;;;;;;2.80;2.50;;;29.20;98.70;;;;;;4834545;29;20221;-79
2021/07/25 12:23:57;;;;;;;2.72;2.42;;;29.20;99.40;;;;;;4835394;29;20218;-79
2021/07/25 12:26:42;;;;;;;2.60;2.40;;;29.30;99.40;;;;;;4848148;29;20218;-79
2021/07/25 12:29:44;;;;;;;2.35;2.13;;;29.50;99.30;;;;;;4840512;29;20309;-79
2021/07/25 12:32:30;;;;;;;5.05;2.88;;;29.80;98.00;;;;;;4783163;29;20224;-78
2021/07/25 12:35:11;;;;;;;2.85;2.38;;;29.80;97.30;;;;;;4812994;29;20226;-79
2021/07/25 12:37:50;;;;;;;2.30;2.15;;;29.80;97.20;;;;;;4851786;29;20672;-79
2021/07/25 12:40:25;;;;;;;4.30;2.50;;;29.90;97.60;;;;;;4855991;29;20220;-79
2021/07/25 12:42:57;;;;;;;3.10;2.90;;;30.00;97.60;;;;;;4815692;29;20233;-79
2021/07/25 12:45:35;;;;;;;3.10;2.90;;;30.00;96.70;;;;;;4845898;29;20646;-78
2021/07/25 12:48:10;;;;;;;2.53;2.33;;;30.00;97.10;;;;;;4860251;29;20229;-78
2021/07/25 12:50:55;;;;;;;2.55;2.35;;;30.00;96.30;;;;;;4843009;29;20217;-79
2021/07/25 12:53:26;;;;;;;3.70;2.85;;;30.00;96.30;;;;;;4830506;29;20241;-79
2021/07/25 12:55:53;;;;;;;3.38;3.08;;;30.10;95.50;;;;;;4847026;29;20222;-80